sensor_id;sensor_type;location;lat;lon;timestamp;P1;durP1;ratioP1;P2;durP2;ratioP2
3922;SDS011;1976;51.694;6.256;2022-09-09T00:00:20;0.60;;;0.60;;
3922;SDS011;1976;51.694;6.256;2022-09-09T00:02:49;0.70;;;0.70;;
3922;SDS011;1976;51.694;6.256;2022-09-09T00:05:29;0.60;;;0.60;;
3922;SDS011;1976;51.694;6.256;2022-09-09T00:07:58;0.70;;;0.70;;
3922;SDS011;1976;51.694;6.256;2022-09-09T00:10:37;0.67;;;0.67;;
3922;SDS011;1976;51.694;6.256;2022-09-09T00:13:22;0.60;;;0.60;;
3922;SDS011;1976;51.694;6.256;2022-09-09T00:15:54;0.70;;;0.70;;
3922;SDS011;1976;51.694;6.256;2022-09-09T00:18:25;0.60;;;0.60;;
3922;SDS011;1976;51.694;6.256;2022-09-09T00:25:50;0.60;;;0.60;;
3922;SDS011;1976;51.694;6.256;2022-09-09T00:28:20;0.70;;;0.70;;
3922;SDS011;1976;51.694;6.256;2022-09-09T00:30:48;0.60;;;0.60;;
3922;SDS011;1976;51.694;6.256;2022-09-09T00:33:16;0.70;;;0.70;;
3922;SDS011;1976;51.694;6.256;2022-09-09T00:35:50;0.70;;;0.70;;
3922;SDS011;1976;51.694;6.256;2022-09-09T00:38:18;0.70;;;0.70;;
3922;SDS011;1976;51.694;6.256;2022-09-09T00:40:49;0.60;;;0.60;;
3922;SDS011;1976;51.694;6.256;2022-09-09T00:48:12;0.60;;;0.60;;
3922;SDS011;1976;51.694;6.256;2022-09-09T00:58:10;0.60;;;0.60;;
3922;SDS011;1976;51.694;6.256;2022-09-09T01:03:10;0.70;;;0.70;;
3922;SDS011;1976;51.694;6.256;2022-09-09T01:05:44;0.60;;;0.60;;
3922;SDS011;1976;51.694;6.256;2022-09-09T01:10:56;0.70;;;0.70;;
3922;SDS011;1976;51.694;6.256;2022-09-09T01:13:25;0.63;;;0.63;;
3922;SDS011;1976;51.694;6.256;2022-09-09T01:15:52;0.70;;;0.70;;
3922;SDS011;1976;51.694;6.256;2022-09-09T01:18:20;0.70;;;0.70;;
3922;SDS011;1976;51.694;6.256;2022-09-09T01:21:48;0.67;;;0.67;;
3922;SDS011;1976;51.694;6.256;2022-09-09T01:28:52;0.70;;;0.70;;
3922;SDS011;1976;51.694;6.256;2022-09-09T01:31:21;0.70;;;0.70;;
3922;SDS011;1976;51.694;6.256;2022-09-09T01:33:48;0.60;;;0.60;;
3922;SDS011;1976;51.694;6.256;2022-09-09T01:36:17;0.70;;;0.70;;
3922;SDS011;1976;51.694;6.256;2022-09-09T01:38:46;0.70;;;0.70;;
3922;SDS011;1976;51.694;6.256;2022-09-09T01:41:12;0.70;;;0.70;;
3922;SDS011;1976;51.694;6.256;2022-09-09T01:43:38;0.70;;;0.70;;
3922;SDS011;1976;51.694;6.256;2022-09-09T01:46:04;0.80;;;0.80;;
3922;SDS011;1976;51.694;6.256;2022-09-09T01:48:30;0.70;;;0.70;;
3922;SDS011;1976;51.694;6.256;2022-09-09T01:50:56;0.70;;;0.70;;
3922;SDS011;1976;51.694;6.256;2022-09-09T01:53:23;0.70;;;0.70;;
3922;SDS011;1976;51.694;6.256;2022-09-09T01:55:58;0.70;;;0.70;;
3922;SDS011;1976;51.694;6.256;2022-09-09T01:58:31;0.70;;;0.70;;
3922;SDS011;1976;51.694;6.256;2022-09-09T02:03:56;0.60;;;0.60;;
3922;SDS011;1976;51.694;6.256;2022-09-09T02:06:27;0.67;;;0.67;;
3922;SDS011;1976;51.694;6.256;2022-09-09T02:08:55;0.70;;;0.70;;
3922;SDS011;1976;51.694;6.256;2022-09-09T02:11:22;0.70;;;0.70;;
3922;SDS011;1976;51.694;6.256;2022-09-09T02:13:49;0.60;;;0.60;;
3922;SDS011;1976;51.694;6.256;2022-09-09T02:16:27;0.70;;;0.70;;
3922;SDS011;1976;51.694;6.256;2022-09-09T02:19:08;0.70;;;0.70;;
3922;SDS011;1976;51.694;6.256;2022-09-09T02:21:37;0.70;;;0.70;;
3922;SDS011;1976;51.694;6.256;2022-09-09T02:24:06;0.60;;;0.60;;
3922;SDS011;1976;51.694;6.256;2022-09-09T02:26:39;0.70;;;0.70;;
3922;SDS011;1976;51.694;6.256;2022-09-09T02:29:08;0.60;;;0.60;;
3922;SDS011;1976;51.694;6.256;2022-09-09T02:31:34;0.70;;;0.70;;
3922;SDS011;1976;51.694;6.256;2022-09-09T02:34:01;0.70;;;0.70;;
3922;SDS011;1976;51.694;6.256;2022-09-09T02:36:30;0.60;;;0.60;;
3922;SDS011;1976;51.694;6.256;2022-09-09T02:38:58;0.70;;;0.70;;
3922;SDS011;1976;51.694;6.256;2022-09-09T02:41:32;0.70;;;0.70;;
3922;SDS011;1976;51.694;6.256;2022-09-09T02:43:58;0.70;;;0.70;;
3922;SDS011;1976;51.694;6.256;2022-09-09T02:46:27;0.73;;;0.73;;
3922;SDS011;1976;51.694;6.256;2022-09-09T02:51:27;0.70;;;0.70;;
3922;SDS011;1976;51.694;6.256;2022-09-09T02:53:59;0.60;;;0.60;;
3922;SDS011;1976;51.694;6.256;2022-09-09T02:56:30;0.70;;;0.70;;
3922;SDS011;1976;51.694;6.256;2022-09-09T02:58:58;0.60;;;0.60;;
3922;SDS011;1976;51.694;6.256;2022-09-09T03:01:24;0.70;;;0.70;;
3922;SDS011;1976;51.694;6.256;2022-09-09T03:03:50;0.70;;;0.70;;
3922;SDS011;1976;51.694;6.256;2022-09-09T03:06:16;0.60;;;0.60;;
3922;SDS011;1976;51.694;6.256;2022-09-09T03:08:42;0.60;;;0.60;;
3922;SDS011;1976;51.694;6.256;2022-09-09T03:11:08;0.67;;;0.67;;
3922;SDS011;1976;51.694;6.256;2022-09-09T03:13:34;0.70;;;0.70;;
3922;SDS011;1976;51.694;6.256;2022-09-09T03:16:00;0.60;;;0.60;;
3922;SDS011;1976;51.694;6.256;2022-09-09T03:18:26;0.60;;;0.60;;
3922;SDS011;1976;51.694;6.256;2022-09-09T03:20:53;0.80;;;0.80;;
3922;SDS011;1976;51.694;6.256;2022-09-09T03:23:19;0.70;;;0.70;;
3922;SDS011;1976;51.694;6.256;2022-09-09T03:25:47;0.60;;;0.60;;
3922;SDS011;1976;51.694;6.256;2022-09-09T03:28:13;0.70;;;0.70;;
3922;SDS011;1976;51.694;6.256;2022-09-09T03:30:40;0.63;;;0.63;;
3922;SDS011;1976;51.694;6.256;2022-09-09T03:33:06;0.70;;;0.70;;
3922;SDS011;1976;51.694;6.256;2022-09-09T03:35:32;0.80;;;0.80;;
3922;SDS011;1976;51.694;6.256;2022-09-09T03:37:58;0.70;;;0.70;;
3922;SDS011;1976;51.694;6.256;2022-09-09T03:40:25;0.70;;;0.70;;
3922;SDS011;1976;51.694;6.256;2022-09-09T03:42:51;0.70;;;0.70;;
3922;SDS011;1976;51.694;6.256;2022-09-09T03:45:17;0.70;;;0.70;;
3922;SDS011;1976;51.694;6.256;2022-09-09T03:47:44;0.60;;;0.60;;
3922;SDS011;1976;51.694;6.256;2022-09-09T03:50:10;0.60;;;0.60;;
3922;SDS011;1976;51.694;6.256;2022-09-09T03:52:36;0.70;;;0.70;;
3922;SDS011;1976;51.694;6.256;2022-09-09T03:55:03;0.63;;;0.63;;
3922;SDS011;1976;51.694;6.256;2022-09-09T03:57:29;0.67;;;0.67;;
3922;SDS011;1976;51.694;6.256;2022-09-09T03:59:55;0.70;;;0.70;;
3922;SDS011;1976;51.694;6.256;2022-09-09T04:02:22;0.70;;;0.70;;
3922;SDS011;1976;51.694;6.256;2022-09-09T04:04:48;0.60;;;0.60;;
3922;SDS011;1976;51.694;6.256;2022-09-09T04:07:14;0.60;;;0.60;;
3922;SDS011;1976;51.694;6.256;2022-09-09T04:09:40;0.60;;;0.60;;
3922;SDS011;1976;51.694;6.256;2022-09-09T04:12:06;1.17;;;1.07;;
3922;SDS011;1976;51.694;6.256;2022-09-09T04:14:32;0.60;;;0.60;;
3922;SDS011;1976;51.694;6.256;2022-09-09T04:16:58;0.70;;;0.70;;
3922;SDS011;1976;51.694;6.256;2022-09-09T04:19:25;0.70;;;0.70;;
3922;SDS011;1976;51.694;6.256;2022-09-09T04:21:51;0.60;;;0.60;;
3922;SDS011;1976;51.694;6.256;2022-09-09T04:24:17;0.70;;;0.70;;
3922;SDS011;1976;51.694;6.256;2022-09-09T04:26:43;0.70;;;0.70;;
3922;SDS011;1976;51.694;6.256;2022-09-09T04:29:10;0.60;;;0.60;;
3922;SDS011;1976;51.694;6.256;2022-09-09T04:31:36;0.70;;;0.70;;
3922;SDS011;1976;51.694;6.256;2022-09-09T04:34:06;0.70;;;0.70;;
3922;SDS011;1976;51.694;6.256;2022-09-09T04:36:32;0.70;;;0.70;;
3922;SDS011;1976;51.694;6.256;2022-09-09T04:38:59;0.60;;;0.60;;
3922;SDS011;1976;51.694;6.256;2022-09-09T04:41:26;0.70;;;0.70;;
3922;SDS011;1976;51.694;6.256;2022-09-09T04:43:52;0.60;;;0.60;;
3922;SDS011;1976;51.694;6.256;2022-09-09T04:46:19;0.60;;;0.60;;
3922;SDS011;1976;51.694;6.256;2022-09-09T04:48:45;0.70;;;0.70;;
3922;SDS011;1976;51.694;6.256;2022-09-09T04:51:12;0.60;;;0.60;;
3922;SDS011;1976;51.694;6.256;2022-09-09T04:53:38;0.70;;;0.70;;
3922;SDS011;1976;51.694;6.256;2022-09-09T04:56:06;0.63;;;0.63;;
3922;SDS011;1976;51.694;6.256;2022-09-09T04:58:32;0.70;;;0.70;;
3922;SDS011;1976;51.694;6.256;2022-09-09T05:01:09;0.60;;;0.60;;
3922;SDS011;1976;51.694;6.256;2022-09-09T05:03:35;0.60;;;0.60;;
3922;SDS011;1976;51.694;6.256;2022-09-09T05:06:06;0.70;;;0.70;;
3922;SDS011;1976;51.694;6.256;2022-09-09T05:08:33;0.60;;;0.60;;
3922;SDS011;1976;51.694;6.256;2022-09-09T05:10:59;0.60;;;0.60;;
3922;SDS011;1976;51.694;6.256;2022-09-09T05:13:26;0.60;;;0.60;;
3922;SDS011;1976;51.694;6.256;2022-09-09T05:15:53;0.67;;;0.67;;
3922;SDS011;1976;51.694;6.256;2022-09-09T05:18:19;0.70;;;0.70;;
3922;SDS011;1976;51.694;6.256;2022-09-09T05:20:47;0.60;;;0.60;;
3922;SDS011;1976;51.694;6.256;2022-09-09T05:23:13;0.73;;;0.73;;
3922;SDS011;1976;51.694;6.256;2022-09-09T05:25:39;0.60;;;0.60;;
3922;SDS011;1976;51.694;6.256;2022-09-09T05:28:06;0.70;;;0.70;;
3922;SDS011;1976;51.694;6.256;2022-09-09T05:30:32;0.70;;;0.70;;
3922;SDS011;1976;51.694;6.256;2022-09-09T05:32:59;0.60;;;0.60;;
3922;SDS011;1976;51.694;6.256;2022-09-09T05:35:25;0.60;;;0.60;;
3922;SDS011;1976;51.694;6.256;2022-09-09T05:37:51;0.60;;;0.60;;
3922;SDS011;1976;51.694;6.256;2022-09-09T05:40:17;0.60;;;0.60;;
3922;SDS011;1976;51.694;6.256;2022-09-09T05:42:43;0.60;;;0.60;;
3922;SDS011;1976;51.694;6.256;2022-09-09T05:45:09;0.60;;;0.60;;
3922;SDS011;1976;51.694;6.256;2022-09-09T05:47:36;0.60;;;0.60;;
3922;SDS011;1976;51.694;6.256;2022-09-09T05:50:02;0.60;;;0.60;;
3922;SDS011;1976;51.694;6.256;2022-09-09T05:52:28;0.63;;;0.63;;
3922;SDS011;1976;51.694;6.256;2022-09-09T05:54:54;0.60;;;0.60;;
3922;SDS011;1976;51.694;6.256;2022-09-09T05:57:22;0.60;;;0.60;;
3922;SDS011;1976;51.694;6.256;2022-09-09T05:59:48;0.70;;;0.70;;
3922;SDS011;1976;51.694;6.256;2022-09-09T06:02:14;0.60;;;0.60;;
3922;SDS011;1976;51.694;6.256;2022-09-09T06:04:41;0.60;;;0.60;;
3922;SDS011;1976;51.694;6.256;2022-09-09T06:07:07;0.60;;;0.60;;
3922;SDS011;1976;51.694;6.256;2022-09-09T06:09:33;0.70;;;0.70;;
3922;SDS011;1976;51.694;6.256;2022-09-09T06:11:59;0.63;;;0.63;;
3922;SDS011;1976;51.694;6.256;2022-09-09T06:14:25;0.60;;;0.60;;
3922;SDS011;1976;51.694;6.256;2022-09-09T06:16:52;0.60;;;0.60;;
3922;SDS011;1976;51.694;6.256;2022-09-09T06:19:18;0.60;;;0.60;;
3922;SDS011;1976;51.694;6.256;2022-09-09T06:21:45;0.70;;;0.70;;
3922;SDS011;1976;51.694;6.256;2022-09-09T06:24:12;0.70;;;0.70;;
3922;SDS011;1976;51.694;6.256;2022-09-09T06:26:42;0.60;;;0.60;;
3922;SDS011;1976;51.694;6.256;2022-09-09T06:29:08;0.60;;;0.60;;
3922;SDS011;1976;51.694;6.256;2022-09-09T06:31:35;0.60;;;0.60;;
3922;SDS011;1976;51.694;6.256;2022-09-09T06:34:02;0.60;;;0.60;;
3922;SDS011;1976;51.694;6.256;2022-09-09T06:36:33;0.60;;;0.60;;
3922;SDS011;1976;51.694;6.256;2022-09-09T06:38:59;0.60;;;0.60;;
3922;SDS011;1976;51.694;6.256;2022-09-09T06:41:26;0.60;;;0.60;;
3922;SDS011;1976;51.694;6.256;2022-09-09T06:43:53;0.60;;;0.60;;
3922;SDS011;1976;51.694;6.256;2022-09-09T06:46:22;0.60;;;0.60;;
3922;SDS011;1976;51.694;6.256;2022-09-09T06:48:52;0.60;;;0.60;;
3922;SDS011;1976;51.694;6.256;2022-09-09T06:51:20;0.60;;;0.60;;
3922;SDS011;1976;51.694;6.256;2022-09-09T06:53:47;1.37;;;1.23;;
3922;SDS011;1976;51.694;6.256;2022-09-09T06:58:48;2.83;;;1.50;;
3922;SDS011;1976;51.694;6.256;2022-09-09T07:01:15;8.50;;;2.03;;
3922;SDS011;1976;51.694;6.256;2022-09-09T07:03:42;15.63;;;2.83;;
3922;SDS011;1976;51.694;6.256;2022-09-09T07:06:30;1.37;;;1.27;;
3922;SDS011;1976;51.694;6.256;2022-09-09T07:08:58;6.40;;;1.80;;
3922;SDS011;1976;51.694;6.256;2022-09-09T07:11:27;3.73;;;1.93;;
3922;SDS011;1976;51.694;6.256;2022-09-09T07:13:53;6.80;;;1.87;;
3922;SDS011;1976;51.694;6.256;2022-09-09T07:16:20;5.43;;;1.90;;
3922;SDS011;1976;51.694;6.256;2022-09-09T07:18:48;1.97;;;1.80;;
3922;SDS011;1976;51.694;6.256;2022-09-09T07:21:15;5.17;;;1.37;;
3922;SDS011;1976;51.694;6.256;2022-09-09T07:23:41;6.87;;;1.73;;
3922;SDS011;1976;51.694;6.256;2022-09-09T07:26:11;10.00;;;2.60;;
3922;SDS011;1976;51.694;6.256;2022-09-09T07:28:38;3.33;;;1.93;;
3922;SDS011;1976;51.694;6.256;2022-09-09T07:31:05;7.17;;;1.50;;
3922;SDS011;1976;51.694;6.256;2022-09-09T07:33:32;22.67;;;3.10;;
3922;SDS011;1976;51.694;6.256;2022-09-09T07:36:08;3.93;;;1.93;;
3922;SDS011;1976;51.694;6.256;2022-09-09T07:38:38;3.63;;;1.80;;
3922;SDS011;1976;51.694;6.256;2022-09-09T07:41:08;5.80;;;1.50;;
3922;SDS011;1976;51.694;6.256;2022-09-09T07:43:37;6.30;;;1.97;;
3922;SDS011;1976;51.694;6.256;2022-09-09T07:46:04;2.60;;;1.67;;
3922;SDS011;1976;51.694;6.256;2022-09-09T07:48:30;1.10;;;1.00;;
3922;SDS011;1976;51.694;6.256;2022-09-09T07:51:10;2.77;;;1.50;;
3922;SDS011;1976;51.694;6.256;2022-09-09T07:53:37;5.87;;;1.70;;
3922;SDS011;1976;51.694;6.256;2022-09-09T07:56:05;15.13;;;1.87;;
3922;SDS011;1976;51.694;6.256;2022-09-09T07:58:31;8.43;;;1.60;;
3922;SDS011;1976;51.694;6.256;2022-09-09T08:00:57;3.63;;;1.50;;
3922;SDS011;1976;51.694;6.256;2022-09-09T08:03:23;4.50;;;1.50;;
3922;SDS011;1976;51.694;6.256;2022-09-09T08:05:49;12.53;;;2.83;;
3922;SDS011;1976;51.694;6.256;2022-09-09T08:08:16;3.70;;;2.03;;
3922;SDS011;1976;51.694;6.256;2022-09-09T08:10:42;6.00;;;1.80;;
3922;SDS011;1976;51.694;6.256;2022-09-09T08:13:08;7.80;;;2.30;;
3922;SDS011;1976;51.694;6.256;2022-09-09T08:15:34;1.20;;;1.10;;
3922;SDS011;1976;51.694;6.256;2022-09-09T08:18:00;8.17;;;1.97;;
3922;SDS011;1976;51.694;6.256;2022-09-09T08:20:27;1.53;;;1.23;;
3922;SDS011;1976;51.694;6.256;2022-09-09T08:22:54;2.27;;;1.63;;
3922;SDS011;1976;51.694;6.256;2022-09-09T08:25:21;19.30;;;1.97;;
3922;SDS011;1976;51.694;6.256;2022-09-09T08:27:47;12.93;;;1.70;;
3922;SDS011;1976;51.694;6.256;2022-09-09T08:30:13;3.60;;;1.43;;
3922;SDS011;1976;51.694;6.256;2022-09-09T08:32:39;10.80;;;2.93;;
3922;SDS011;1976;51.694;6.256;2022-09-09T08:35:05;5.97;;;2.40;;
3922;SDS011;1976;51.694;6.256;2022-09-09T08:37:31;1.77;;;1.27;;
3922;SDS011;1976;51.694;6.256;2022-09-09T08:39:58;10.20;;;1.80;;
3922;SDS011;1976;51.694;6.256;2022-09-09T08:44:54;7.73;;;1.60;;
3922;SDS011;1976;51.694;6.256;2022-09-09T08:55:27;2.10;;;1.30;;
3922;SDS011;1976;51.694;6.256;2022-09-09T08:57:55;6.10;;;2.10;;
3922;SDS011;1976;51.694;6.256;2022-09-09T09:00:22;6.23;;;2.17;;
3922;SDS011;1976;51.694;6.256;2022-09-09T09:03:02;3.30;;;2.80;;
3922;SDS011;1976;51.694;6.256;2022-09-09T09:05:33;1.97;;;1.27;;
3922;SDS011;1976;51.694;6.256;2022-09-09T09:10:48;9.10;;;2.30;;
3922;SDS011;1976;51.694;6.256;2022-09-09T09:13:19;2.13;;;1.30;;
3922;SDS011;1976;51.694;6.256;2022-09-09T09:15:47;3.87;;;1.43;;
3922;SDS011;1976;51.694;6.256;2022-09-09T09:18:14;1.30;;;1.10;;
3922;SDS011;1976;51.694;6.256;2022-09-09T09:20:56;11.63;;;1.67;;
3922;SDS011;1976;51.694;6.256;2022-09-09T09:23:24;4.63;;;1.03;;
3922;SDS011;1976;51.694;6.256;2022-09-09T09:25:52;3.37;;;1.23;;
3922;SDS011;1976;51.694;6.256;2022-09-09T09:28:23;2.00;;;1.67;;
3922;SDS011;1976;51.694;6.256;2022-09-09T09:35:54;1.17;;;1.07;;
3922;SDS011;1976;51.694;6.256;2022-09-09T09:38:22;1.60;;;1.30;;
3922;SDS011;1976;51.694;6.256;2022-09-09T09:40:52;2.57;;;1.17;;
3922;SDS011;1976;51.694;6.256;2022-09-09T09:43:32;9.20;;;3.43;;
3922;SDS011;1976;51.694;6.256;2022-09-09T09:45:58;1.33;;;1.10;;
3922;SDS011;1976;51.694;6.256;2022-09-09T09:48:25;8.53;;;1.53;;
3922;SDS011;1976;51.694;6.256;2022-09-09T09:50:52;1.63;;;1.00;;
3922;SDS011;1976;51.694;6.256;2022-09-09T09:53:21;2.17;;;0.83;;
3922;SDS011;1976;51.694;6.256;2022-09-09T09:55:54;3.07;;;1.33;;
3922;SDS011;1976;51.694;6.256;2022-09-09T09:58:20;11.93;;;1.63;;
3922;SDS011;1976;51.694;6.256;2022-09-09T10:00:47;3.10;;;1.20;;
3922;SDS011;1976;51.694;6.256;2022-09-09T10:03:19;6.47;;;1.73;;
3922;SDS011;1976;51.694;6.256;2022-09-09T10:05:47;4.23;;;2.33;;
3922;SDS011;1976;51.694;6.256;2022-09-09T10:08:14;4.20;;;1.53;;
3922;SDS011;1976;51.694;6.256;2022-09-09T10:13:15;2.17;;;1.73;;
3922;SDS011;1976;51.694;6.256;2022-09-09T10:15:47;3.10;;;1.30;;
3922;SDS011;1976;51.694;6.256;2022-09-09T10:18:34;1.30;;;1.07;;
3922;SDS011;1976;51.694;6.256;2022-09-09T10:21:05;4.47;;;1.77;;
3922;SDS011;1976;51.694;6.256;2022-09-09T10:23:43;6.13;;;1.90;;
3922;SDS011;1976;51.694;6.256;2022-09-09T10:26:19;3.53;;;1.33;;
3922;SDS011;1976;51.694;6.256;2022-09-09T10:34:20;4.40;;;1.60;;
3922;SDS011;1976;51.694;6.256;2022-09-09T10:36:50;4.13;;;1.70;;
3922;SDS011;1976;51.694;6.256;2022-09-09T10:51:58;2.10;;;0.93;;
3922;SDS011;1976;51.694;6.256;2022-09-09T10:57:31;5.47;;;1.60;;
3922;SDS011;1976;51.694;6.256;2022-09-09T11:00:02;1.03;;;0.80;;
3922;SDS011;1976;51.694;6.256;2022-09-09T11:02:30;5.53;;;1.80;;
3922;SDS011;1976;51.694;6.256;2022-09-09T11:04:58;5.83;;;1.40;;
3922;SDS011;1976;51.694;6.256;2022-09-09T11:07:43;4.77;;;1.70;;
3922;SDS011;1976;51.694;6.256;2022-09-09T11:10:16;3.37;;;1.37;;
3922;SDS011;1976;51.694;6.256;2022-09-09T11:12:43;6.33;;;1.97;;
3922;SDS011;1976;51.694;6.256;2022-09-09T11:15:35;6.00;;;1.73;;
3922;SDS011;1976;51.694;6.256;2022-09-09T11:17:59;2.10;;;1.30;;
3922;SDS011;1976;51.694;6.256;2022-09-09T11:20:27;1.10;;;0.80;;
3922;SDS011;1976;51.694;6.256;2022-09-09T11:23:11;0.90;;;0.90;;
3922;SDS011;1976;51.694;6.256;2022-09-09T11:25:43;4.30;;;1.20;;
3922;SDS011;1976;51.694;6.256;2022-09-09T11:38:37;1.57;;;1.43;;
3922;SDS011;1976;51.694;6.256;2022-09-09T11:41:08;2.97;;;1.50;;
3922;SDS011;1976;51.694;6.256;2022-09-09T11:43:39;6.00;;;2.00;;
3922;SDS011;1976;51.694;6.256;2022-09-09T11:46:06;3.50;;;1.17;;
3922;SDS011;1976;51.694;6.256;2022-09-09T11:48:36;6.00;;;1.63;;
3922;SDS011;1976;51.694;6.256;2022-09-09T11:53:30;2.03;;;1.20;;
3922;SDS011;1976;51.694;6.256;2022-09-09T11:56:03;1.90;;;1.10;;
3922;SDS011;1976;51.694;6.256;2022-09-09T11:58:32;2.80;;;1.40;;
3922;SDS011;1976;51.694;6.256;2022-09-09T12:00:58;4.20;;;2.37;;
3922;SDS011;1976;51.694;6.256;2022-09-09T12:03:31;2.27;;;1.30;;
3922;SDS011;1976;51.694;6.256;2022-09-09T12:06:08;3.43;;;1.20;;
3922;SDS011;1976;51.694;6.256;2022-09-09T12:08:35;3.97;;;1.60;;
3922;SDS011;1976;51.694;6.256;2022-09-09T12:11:02;5.90;;;1.80;;
3922;SDS011;1976;51.694;6.256;2022-09-09T12:13:29;2.87;;;1.30;;
3922;SDS011;1976;51.694;6.256;2022-09-09T12:15:57;11.30;;;2.60;;
3922;SDS011;1976;51.694;6.256;2022-09-09T12:18:33;2.00;;;1.20;;
3922;SDS011;1976;51.694;6.256;2022-09-09T12:31:17;0.70;;;0.70;;
3922;SDS011;1976;51.694;6.256;2022-09-09T12:33:45;0.70;;;0.70;;
3922;SDS011;1976;51.694;6.256;2022-09-09T12:36:30;0.60;;;0.60;;
3922;SDS011;1976;51.694;6.256;2022-09-09T12:38:59;0.60;;;0.60;;
3922;SDS011;1976;51.694;6.256;2022-09-09T12:41:35;0.60;;;0.60;;
3922;SDS011;1976;51.694;6.256;2022-09-09T12:44:06;0.60;;;0.60;;
3922;SDS011;1976;51.694;6.256;2022-09-09T12:46:34;0.80;;;0.80;;
3922;SDS011;1976;51.694;6.256;2022-09-09T12:49:01;0.60;;;0.60;;
3922;SDS011;1976;51.694;6.256;2022-09-09T12:51:31;0.60;;;0.60;;
3922;SDS011;1976;51.694;6.256;2022-09-09T12:53:58;0.60;;;0.60;;
3922;SDS011;1976;51.694;6.256;2022-09-09T12:56:28;3.93;;;2.00;;
3922;SDS011;1976;51.694;6.256;2022-09-09T12:58:56;1.87;;;1.67;;
3922;SDS011;1976;51.694;6.256;2022-09-09T13:01:24;2.43;;;1.67;;
3922;SDS011;1976;51.694;6.256;2022-09-09T13:03:51;2.73;;;1.77;;
3922;SDS011;1976;51.694;6.256;2022-09-09T13:06:24;2.23;;;1.33;;
3922;SDS011;1976;51.694;6.256;2022-09-09T13:08:51;3.70;;;1.27;;
3922;SDS011;1976;51.694;6.256;2022-09-09T13:11:19;6.53;;;1.97;;
3922;SDS011;1976;51.694;6.256;2022-09-09T13:13:50;2.13;;;1.53;;
3922;SDS011;1976;51.694;6.256;2022-09-09T13:16:38;3.33;;;1.90;;
3922;SDS011;1976;51.694;6.256;2022-09-09T13:19:07;2.37;;;1.60;;
3922;SDS011;1976;51.694;6.256;2022-09-09T13:21:34;4.10;;;1.90;;
3922;SDS011;1976;51.694;6.256;2022-09-09T13:24:00;4.20;;;2.53;;
3922;SDS011;1976;51.694;6.256;2022-09-09T13:26:30;3.50;;;1.67;;
3922;SDS011;1976;51.694;6.256;2022-09-09T13:29:07;2.30;;;1.53;;
3922;SDS011;1976;51.694;6.256;2022-09-09T13:31:36;7.57;;;2.40;;
3922;SDS011;1976;51.694;6.256;2022-09-09T13:34:14;4.17;;;2.10;;
3922;SDS011;1976;51.694;6.256;2022-09-09T13:36:52;1.53;;;1.10;;
3922;SDS011;1976;51.694;6.256;2022-09-09T13:39:19;4.63;;;1.63;;
3922;SDS011;1976;51.694;6.256;2022-09-09T13:41:46;2.70;;;1.57;;
3922;SDS011;1976;51.694;6.256;2022-09-09T13:44:22;2.23;;;1.27;;
3922;SDS011;1976;51.694;6.256;2022-09-09T13:49:45;3.33;;;1.27;;
3922;SDS011;1976;51.694;6.256;2022-09-09T13:52:12;6.10;;;1.93;;
3922;SDS011;1976;51.694;6.256;2022-09-09T13:54:39;2.23;;;1.50;;
3922;SDS011;1976;51.694;6.256;2022-09-09T13:57:05;9.20;;;1.90;;
3922;SDS011;1976;51.694;6.256;2022-09-09T13:59:31;2.63;;;1.93;;
3922;SDS011;1976;51.694;6.256;2022-09-09T14:01:57;10.10;;;1.87;;
3922;SDS011;1976;51.694;6.256;2022-09-09T14:04:24;2.63;;;1.40;;
3922;SDS011;1976;51.694;6.256;2022-09-09T14:06:50;4.80;;;1.23;;
3922;SDS011;1976;51.694;6.256;2022-09-09T14:09:16;2.53;;;1.40;;
3922;SDS011;1976;51.694;6.256;2022-09-09T14:11:43;2.03;;;1.37;;
3922;SDS011;1976;51.694;6.256;2022-09-09T14:14:10;6.77;;;1.33;;
3922;SDS011;1976;51.694;6.256;2022-09-09T14:16:36;1.67;;;1.43;;
3922;SDS011;1976;51.694;6.256;2022-09-09T14:19:02;22.40;;;1.47;;
3922;SDS011;1976;51.694;6.256;2022-09-09T14:21:29;3.80;;;1.60;;
3922;SDS011;1976;51.694;6.256;2022-09-09T14:23:55;2.20;;;1.30;;
3922;SDS011;1976;51.694;6.256;2022-09-09T14:26:23;5.03;;;2.00;;
3922;SDS011;1976;51.694;6.256;2022-09-09T15:29:20;1.80;;;1.67;;
3922;SDS011;1976;51.694;6.256;2022-09-09T15:31:55;2.73;;;1.30;;
3922;SDS011;1976;51.694;6.256;2022-09-09T15:34:21;4.47;;;1.50;;
3922;SDS011;1976;51.694;6.256;2022-09-09T15:36:47;3.00;;;1.20;;
3922;SDS011;1976;51.694;6.256;2022-09-09T15:39:14;4.47;;;1.60;;
3922;SDS011;1976;51.694;6.256;2022-09-09T15:41:41;2.20;;;1.57;;
3922;SDS011;1976;51.694;6.256;2022-09-09T15:44:07;7.13;;;2.07;;
3922;SDS011;1976;51.694;6.256;2022-09-09T15:46:36;24.07;;;2.53;;
3922;SDS011;1976;51.694;6.256;2022-09-09T15:51:29;8.77;;;2.33;;
3922;SDS011;1976;51.694;6.256;2022-09-09T15:53:55;5.00;;;1.80;;
3922;SDS011;1976;51.694;6.256;2022-09-09T15:56:22;0.70;;;0.70;;
3922;SDS011;1976;51.694;6.256;2022-09-09T15:58:48;0.60;;;0.60;;
3922;SDS011;1976;51.694;6.256;2022-09-09T16:01:15;0.60;;;0.60;;
3922;SDS011;1976;51.694;6.256;2022-09-09T16:03:42;0.60;;;0.60;;
3922;SDS011;1976;51.694;6.256;2022-09-09T16:06:10;0.60;;;0.60;;
3922;SDS011;1976;51.694;6.256;2022-09-09T16:08:37;0.60;;;0.60;;
3922;SDS011;1976;51.694;6.256;2022-09-09T16:11:13;0.60;;;0.60;;
3922;SDS011;1976;51.694;6.256;2022-09-09T16:13:40;0.60;;;0.60;;
3922;SDS011;1976;51.694;6.256;2022-09-09T16:16:09;0.60;;;0.60;;
3922;SDS011;1976;51.694;6.256;2022-09-09T16:18:38;14.80;;;1.00;;
3922;SDS011;1976;51.694;6.256;2022-09-09T16:21:04;0.60;;;0.60;;
3922;SDS011;1976;51.694;6.256;2022-09-09T16:23:39;0.60;;;0.60;;
3922;SDS011;1976;51.694;6.256;2022-09-09T16:26:06;0.60;;;0.60;;
3922;SDS011;1976;51.694;6.256;2022-09-09T16:28:32;3.63;;;2.30;;
3922;SDS011;1976;51.694;6.256;2022-09-09T16:30:58;0.60;;;0.60;;
3922;SDS011;1976;51.694;6.256;2022-09-09T16:33:24;0.60;;;0.60;;
3922;SDS011;1976;51.694;6.256;2022-09-09T16:35:51;0.70;;;0.70;;
3922;SDS011;1976;51.694;6.256;2022-09-09T16:38:17;0.60;;;0.60;;
3922;SDS011;1976;51.694;6.256;2022-09-09T16:40:43;0.60;;;0.60;;
3922;SDS011;1976;51.694;6.256;2022-09-09T16:43:09;0.60;;;0.60;;
3922;SDS011;1976;51.694;6.256;2022-09-09T16:45:43;0.60;;;0.60;;
3922;SDS011;1976;51.694;6.256;2022-09-09T16:48:10;0.60;;;0.60;;
3922;SDS011;1976;51.694;6.256;2022-09-09T16:50:36;0.60;;;0.60;;
3922;SDS011;1976;51.694;6.256;2022-09-09T16:53:02;0.60;;;0.60;;
3922;SDS011;1976;51.694;6.256;2022-09-09T16:55:31;0.60;;;0.60;;
3922;SDS011;1976;51.694;6.256;2022-09-09T16:57:57;0.70;;;0.70;;
3922;SDS011;1976;51.694;6.256;2022-09-09T17:00:23;0.60;;;0.60;;
3922;SDS011;1976;51.694;6.256;2022-09-09T17:02:48;0.60;;;0.60;;
3922;SDS011;1976;51.694;6.256;2022-09-09T17:05:14;0.60;;;0.60;;
3922;SDS011;1976;51.694;6.256;2022-09-09T17:07:40;0.60;;;0.60;;
3922;SDS011;1976;51.694;6.256;2022-09-09T17:10:05;0.70;;;0.70;;
3922;SDS011;1976;51.694;6.256;2022-09-09T17:12:32;0.70;;;0.70;;
3922;SDS011;1976;51.694;6.256;2022-09-09T17:14:58;0.70;;;0.70;;
3922;SDS011;1976;51.694;6.256;2022-09-09T17:17:25;0.60;;;0.60;;
3922;SDS011;1976;51.694;6.256;2022-09-09T17:19:51;0.63;;;0.63;;
3922;SDS011;1976;51.694;6.256;2022-09-09T17:22:18;0.63;;;0.63;;
3922;SDS011;1976;51.694;6.256;2022-09-09T17:24:44;0.60;;;0.60;;
3922;SDS011;1976;51.694;6.256;2022-09-09T17:27:12;0.70;;;0.70;;
3922;SDS011;1976;51.694;6.256;2022-09-09T17:29:38;0.70;;;0.70;;
3922;SDS011;1976;51.694;6.256;2022-09-09T17:32:04;0.60;;;0.60;;
3922;SDS011;1976;51.694;6.256;2022-09-09T17:34:30;0.60;;;0.60;;
3922;SDS011;1976;51.694;6.256;2022-09-09T17:36:56;0.60;;;0.60;;
3922;SDS011;1976;51.694;6.256;2022-09-09T17:39:22;0.60;;;0.60;;
3922;SDS011;1976;51.694;6.256;2022-09-09T17:41:47;0.60;;;0.60;;
3922;SDS011;1976;51.694;6.256;2022-09-09T17:44:13;1.90;;;1.80;;
3922;SDS011;1976;51.694;6.256;2022-09-09T17:46:41;2.30;;;2.20;;
3922;SDS011;1976;51.694;6.256;2022-09-09T17:49:09;0.70;;;0.70;;
3922;SDS011;1976;51.694;6.256;2022-09-09T17:51:40;0.60;;;0.60;;
3922;SDS011;1976;51.694;6.256;2022-09-09T17:54:07;0.80;;;0.80;;
3922;SDS011;1976;51.694;6.256;2022-09-09T17:56:35;0.60;;;0.60;;
3922;SDS011;1976;51.694;6.256;2022-09-09T17:59:02;0.60;;;0.60;;
3922;SDS011;1976;51.694;6.256;2022-09-09T18:01:31;0.60;;;0.60;;
3922;SDS011;1976;51.694;6.256;2022-09-09T18:04:00;0.70;;;0.70;;
3922;SDS011;1976;51.694;6.256;2022-09-09T18:06:30;0.70;;;0.70;;
3922;SDS011;1976;51.694;6.256;2022-09-09T18:08:59;0.60;;;0.60;;